Time;durP1;ratioP1;P1;durP2;ratioP2;P2;SDS_P1;SDS_P2;PMS_P1;PMS_P2;Temp;Humidity;BMP_temperature;BMP_pressure;BME280_temperature;BME280_humidity;BME280_pressure;Samples;Min_cycle;Max_cycle;Signal;HPM_P1;HPM_P2
2023/06/02 00:00:39;;;;;;;2.00;1.00;;;10.60;99.90;;;;;;4935127;29;20095;-62
2023/06/02 00:03:05;;;;;;;0.75;0.75;;;10.50;99.90;;;;;;4918578;29;20503;-62
2023/06/02 00:05:31;;;;;;;;;;;10.90;99.90;;;;;;4935540;29;20063;-61
2023/06/02 00:07:57;;;;;;;1.00;0.50;;;10.70;99.90;;;;;;4935080;29;19922;-61
2023/06/02 00:10:23;;;;;;;;;;;10.40;99.90;;;;;;4935467;29;20356;-61
2023/06/02 00:12:48;;;;;;;0.68;0.68;;;10.90;99.90;;;;;;4935022;29;20021;-61
2023/06/02 00:15:14;;;;;;;0.38;0.38;;;10.70;99.90;;;;;;4934961;29;20098;-61
2023/06/02 00:17:40;;;;;;;33.47;2.75;;;10.90;99.90;;;;;;4935129;29;20047;-61
2023/06/02 00:20:06;;;;;;;0.20;0.20;;;10.60;99.90;;;;;;4918133;29;20069;-60
2023/06/02 00:22:32;;;;;;;0.95;0.95;;;10.20;99.90;;;;;;4934122;29;20044;-61
2023/06/02 00:24:58;;;;;;;0.52;0.30;;;10.40;99.90;;;;;;4934855;29;20055;-60
2023/06/02 00:27:24;;;;;;;2.22;0.90;;;10.30;99.90;;;;;;4934846;29;20066;-62
2023/06/02 00:29:50;;;;;;;0.45;0.43;;;10.50;99.90;;;;;;4934580;29;20048;-61
2023/06/02 00:32:15;;;;;;;0.22;0.22;;;10.70;99.90;;;;;;4934901;29;20052;-61
2023/06/02 00:34:41;;;;;;;0.30;0.30;;;10.50;99.90;;;;;;4934922;29;20073;-61
2023/06/02 00:37:07;;;;;;;0.20;0.20;;;10.70;99.90;;;;;;4917884;29;20477;-61
2023/06/02 00:39:32;;;;;;;0.60;0.60;;;10.60;99.90;;;;;;4934700;29;20044;-61
2023/06/02 00:41:59;;;;;;;0.25;0.25;;;10.30;99.90;;;;;;4934726;29;20813;-62
2023/06/02 00:44:25;;;;;;;0.20;0.20;;;10.60;99.90;;;;;;4917665;29;20408;-60
2023/06/02 00:46:51;;;;;;;0.85;0.35;;;10.60;99.90;;;;;;4934809;29;20051;-60
2023/06/02 00:49:17;;;;;;;0.30;0.30;;;10.50;99.90;;;;;;4934750;29;20055;-62
2023/06/02 00:51:45;;;;;;;0.50;0.50;;;10.50;99.90;;;;;;4934663;29;20060;-61
2023/06/02 00:54:13;;;;;;;0.30;0.30;;;10.70;99.90;;;;;;4934570;29;20048;-61
2023/06/02 00:56:40;;;;;;;0.50;0.50;;;10.50;99.90;;;;;;4934363;29;20056;-60
2023/06/02 00:59:07;;;;;;;0.30;0.30;;;10.60;99.90;;;;;;4917560;29;20055;-61
2023/06/02 01:01:33;;;;;;;0.25;0.25;;;10.80;99.90;;;;;;4934583;29;20059;-60
2023/06/02 01:03:59;;;;;;;0.20;0.20;;;10.20;99.90;;;;;;4934620;29;20062;-60
2023/06/02 01:06:31;;;;;;;0.20;0.20;;;10.60;99.90;;;;;;4934520;29;20048;-61
2023/06/02 01:08:58;;;;;;;0.40;0.40;;;10.30;99.90;;;;;;4917515;29;20130;-60
2023/06/02 01:11:24;;;;;;;0.47;0.47;;;10.20;99.90;;;;;;4934393;29;20389;-60
2023/06/02 01:13:50;;;;;;;0.30;0.30;;;10.60;99.90;;;;;;4934260;29;20059;-60
2023/06/02 01:16:15;;;;;;;6.53;0.65;;;10.30;99.90;;;;;;4934498;29;20073;-60
2023/06/02 01:18:45;;;;;;;0.93;0.57;;;10.10;99.90;;;;;;4934472;29;20036;-61
2023/06/02 01:21:12;;;;;;;0.25;0.25;;;10.50;99.90;;;;;;4934414;29;20062;-61
2023/06/02 01:23:49;;;;;;;1.55;0.95;;;10.40;99.90;;;;;;4934373;29;20055;-61
2023/06/02 01:26:14;;;;;;;0.32;0.32;;;10.30;99.90;;;;;;4934497;29;20056;-61
2023/06/02 01:28:40;;;;;;;0.30;0.30;;;10.10;99.90;;;;;;4934442;29;20373;-61
2023/06/02 01:31:22;;;;;;;0.25;0.25;;;10.50;99.90;;;;;;4934060;29;20071;-60
2023/06/02 01:34:03;;;;;;;0.95;0.82;;;10.30;99.90;;;;;;4935672;29;20143;-60
2023/06/02 01:36:32;;;;;;;0.57;0.57;;;10.30;99.90;;;;;;4937956;29;20126;-61
2023/06/02 01:39:00;;;;;;;7.70;0.75;;;10.20;99.90;;;;;;4938091;29;20055;-61
2023/06/02 01:41:27;;;;;;;14.00;1.00;;;10.50;99.90;;;;;;4937946;29;20055;-60
2023/06/02 01:43:56;;;;;;;0.20;0.20;;;10.20;99.90;;;;;;4937803;29;20058;-60
2023/06/02 01:46:24;;;;;;;0.30;0.30;;;10.70;99.90;;;;;;4920341;29;20126;-60
2023/06/02 01:48:54;;;;;;;0.77;0.77;;;10.50;99.90;;;;;;4937676;29;20131;-60
2023/06/02 01:51:20;;;;;;;0.68;0.68;;;10.90;99.90;;;;;;4937537;29;20052;-60
2023/06/02 01:53:45;;;;;;;0.30;0.30;;;10.30;99.90;;;;;;4937972;29;20047;-60
2023/06/02 01:56:11;;;;;;;0.30;0.30;;;10.20;99.90;;;;;;4937626;29;20142;-60
2023/06/02 01:58:37;;;;;;;0.50;0.43;;;10.50;99.90;;;;;;4937562;29;20488;-61
2023/06/02 02:01:03;;;;;;;0.20;0.20;;;10.50;99.90;;;;;;4937580;29;20122;-61
2023/06/02 02:03:32;;;;;;;0.25;0.25;;;10.50;99.90;;;;;;4937340;29;20052;-60
2023/06/02 02:05:58;;;;;;;1.02;0.95;;;10.80;99.90;;;;;;4937217;29;20051;-60
2023/06/02 02:08:24;;;;;;;;;;;10.90;99.90;;;;;;4937771;29;20135;-60
2023/06/02 02:10:50;;;;;;;0.80;0.50;;;10.30;99.90;;;;;;4920375;29;20063;-61
2023/06/02 02:13:16;;;;;;;0.77;0.25;;;10.30;99.90;;;;;;4937255;29;20043;-60
2023/06/02 02:15:41;;;;;;;0.93;0.65;;;10.30;99.90;;;;;;4937209;29;20054;-61
2023/06/02 02:18:07;;;;;;;2.30;2.20;;;10.60;99.90;;;;;;4937140;29;20048;-60
2023/06/02 02:20:39;;;;;;;3.45;1.45;;;10.40;99.90;;;;;;4936993;29;20051;-60
2023/06/02 02:23:05;;;;;;;0.90;0.90;;;10.40;99.90;;;;;;4920165;29;20043;-61
2023/06/02 02:25:31;;;;;;;12.25;0.55;;;10.20;99.90;;;;;;4937072;29;20250;-61
2023/06/02 02:27:56;;;;;;;0.30;0.30;;;10.20;99.90;;;;;;4937035;29;20091;-61
2023/06/02 02:30:22;;;;;;;3.58;1.20;;;10.80;99.90;;;;;;4936876;29;20055;-60
2023/06/02 02:32:48;;;;;;;0.80;0.80;;;10.50;99.90;;;;;;4936910;29;20043;-61
2023/06/02 02:35:13;;;;;;;1.00;0.80;;;10.20;99.90;;;;;;4936836;29;20389;-61
2023/06/02 02:37:39;;;;;;;0.30;0.30;;;10.40;99.90;;;;;;4920029;29;20044;-61
2023/06/02 02:40:06;;;;;;;0.30;0.30;;;10.40;99.90;;;;;;4936913;29;20090;-61
2023/06/02 02:42:34;;;;;;;;;;;10.50;99.90;;;;;;4937224;29;20052;-61
2023/06/02 02:45:02;;;;;;;0.32;0.32;;;10.70;99.90;;;;;;4935699;29;20382;-61
2023/06/02 02:47:28;;;;;;;4.90;0.95;;;10.70;99.90;;;;;;4936599;29;20114;-61
2023/06/02 02:49:54;;;;;;;0.25;0.25;;;10.90;99.90;;;;;;4936466;29;20486;-61
2023/06/02 02:52:20;;;;;;;0.20;0.20;;;10.70;99.90;;;;;;4919906;29;20052;-61
2023/06/02 02:54:46;;;;;;;10.43;0.65;;;10.20;99.90;;;;;;4936822;29;20134;-61
2023/06/02 02:57:13;;;;;;;0.60;0.60;;;10.70;99.90;;;;;;4936654;29;20138;-61
2023/06/02 02:59:39;;;;;;;1.67;0.55;;;10.70;99.90;;;;;;4919533;29;20082;-61
2023/06/02 03:02:06;;;;;;;0.38;0.38;;;10.30;99.90;;;;;;4936331;29;20197;-61
2023/06/02 03:04:32;;;;;;;1.42;1.38;;;10.80;99.90;;;;;;4936547;29;20094;-61
2023/06/02 03:06:58;;;;;;;0.65;0.60;;;10.80;99.90;;;;;;4936446;29;20503;-60
2023/06/02 03:09:24;;;;;;;0.65;0.65;;;10.50;99.90;;;;;;4936341;29;20040;-61
2023/06/02 03:11:50;;;;;;;0.70;0.43;;;10.80;99.90;;;;;;4936272;29;20048;-60
2023/06/02 03:14:16;;;;;;;0.30;0.30;;;10.60;99.90;;;;;;4936227;29;20056;-60
2023/06/02 03:16:44;;;;;;;0.77;0.75;;;11.00;99.90;;;;;;4919291;29;20055;-61
2023/06/02 03:19:14;;;;;;;0.30;0.30;;;10.80;99.90;;;;;;4936355;29;20052;-61
2023/06/02 03:21:44;;;;;;;0.30;0.30;;;10.70;99.90;;;;;;4919608;29;20374;-61
2023/06/02 03:24:15;;;;;;;0.30;0.30;;;10.30;99.90;;;;;;4936193;29;20130;-61
2023/06/02 03:26:42;;;;;;;0.43;0.43;;;10.80;99.90;;;;;;4936026;29;20051;-61
2023/06/02 03:29:12;;;;;;;0.40;0.40;;;10.90;99.90;;;;;;4935749;29;20501;-61
2023/06/02 03:31:41;;;;;;;0.30;0.30;;;10.90;99.90;;;;;;4918931;29;20408;-61
2023/06/02 03:34:07;;;;;;;0.65;0.65;;;10.60;99.90;;;;;;4935685;29;20515;-61
2023/06/02 03:36:35;;;;;;;0.25;0.25;;;11.20;99.90;;;;;;4935838;29;20055;-61
2023/06/02 03:39:03;;;;;;;0.57;0.57;;;11.10;99.90;;;;;;4935756;29;20502;-61
2023/06/02 03:41:29;;;;;;;0.90;0.90;;;11.20;99.90;;;;;;4935653;29;20048;-61
2023/06/02 03:43:55;;;;;;;0.38;0.38;;;11.00;99.90;;;;;;4935526;29;20412;-61
2023/06/02 03:46:20;;;;;;;0.68;0.68;;;10.40;99.90;;;;;;4935703;29;20129;-61
2023/06/02 03:48:46;;;;;;;0.30;0.30;;;11.00;99.90;;;;;;4935569;29;20048;-61
2023/06/02 03:51:11;;;;;;;0.73;0.73;;;10.90;99.90;;;;;;4935570;29;20056;-61
2023/06/02 03:53:37;;;;;;;0.45;0.45;;;10.50;99.90;;;;;;4935460;29;20602;-61
2023/06/02 03:56:03;;;;;;;1.27;1.15;;;11.20;99.90;;;;;;4935063;29;20087;-61
2023/06/02 03:58:28;;;;;;;0.47;0.47;;;10.70;99.90;;;;;;4935314;29;20066;-61
2023/06/02 04:00:55;;;;;;;1.23;1.13;;;11.10;99.90;;;;;;4935434;29;20054;-62
2023/06/02 04:03:21;;;;;;;1.55;1.17;;;11.00;99.90;;;;;;4935325;29;20127;-61
2023/06/02 04:05:47;;;;;;;0.43;0.43;;;10.90;99.90;;;;;;4935311;29;20054;-61
2023/06/02 04:08:14;;;;;;;0.30;0.30;;;10.90;99.90;;;;;;4935267;29;20492;-61
2023/06/02 04:10:40;;;;;;;0.20;0.20;;;11.50;99.90;;;;;;4917952;29;20050;-61
2023/06/02 04:13:06;;;;;;;;;;;10.60;99.90;;;;;;4935409;29;20119;-61
2023/06/02 04:15:31;;;;;;;0.52;0.52;;;10.70;99.90;;;;;;4935218;29;19930;-61
2023/06/02 04:17:57;;;;;;;0.50;0.50;;;10.90;99.90;;;;;;4935161;29;20400;-61
2023/06/02 04:20:23;;;;;;;0.50;0.50;;;11.10;99.90;;;;;;4934866;29;20056;-61
2023/06/02 04:22:48;;;;;;;2.13;0.88;;;11.10;99.90;;;;;;4934966;29;20051;-61
2023/06/02 04:25:14;;;;;;;4.18;1.48;;;12.20;99.90;;;;;;4934940;29;20472;-61
2023/06/02 04:27:40;;;;;;;0.55;0.55;;;10.50;99.90;;;;;;4934857;29;20134;-61
2023/06/02 04:30:07;;;;;;;0.47;0.38;;;11.30;99.90;;;;;;4934922;29;20040;-61
2023/06/02 04:32:32;;;;;;;0.20;0.20;;;11.30;99.90;;;;;;4934848;29;20135;-61
2023/06/02 04:34:58;;;;;;;0.63;0.63;;;10.70;99.90;;;;;;4934961;29;20517;-61
2023/06/02 04:37:25;;;;;;;0.20;0.20;;;11.20;99.90;;;;;;4934785;29;20044;-61
2023/06/02 04:39:51;;;;;;;0.47;0.47;;;11.20;99.90;;;;;;4934700;29;20056;-61
2023/06/02 04:42:17;;;;;;;1.02;0.90;;;11.40;99.90;;;;;;4934596;29;20070;-61
2023/06/02 04:44:44;;;;;;;0.25;0.25;;;11.60;99.90;;;;;;4934584;29;20044;-61
2023/06/02 04:47:10;;;;;;;1.65;0.40;;;11.00;99.90;;;;;;4934733;29;20055;-61
2023/06/02 04:49:37;;;;;;;0.73;0.73;;;11.10;99.90;;;;;;4934426;29;20448;-61
2023/06/02 04:52:07;;;;;;;;;;;11.40;99.90;;;;;;4934986;29;20068;-61
2023/06/02 04:54:33;;;;;;;0.30;0.30;;;11.40;99.90;;;;;;4934628;29;19935;-61
2023/06/02 04:56:59;;;;;;;0.52;0.52;;;11.10;99.90;;;;;;4934586;29;20067;-61
2023/06/02 04:59:24;;;;;;;0.40;0.40;;;11.30;99.90;;;;;;4934446;29;20377;-61
2023/06/02 05:01:50;;;;;;;8.23;1.67;;;11.30;99.90;;;;;;4934551;29;20047;-61
2023/06/02 05:04:16;;;;;;;3.92;0.73;;;11.50;99.90;;;;;;4934736;29;20134;-61
2023/06/02 05:06:41;;;;;;;1.95;0.85;;;11.30;99.90;;;;;;4934437;29;20059;-61
2023/06/02 05:09:07;;;;;;;0.43;0.43;;;11.90;99.90;;;;;;4936365;29;20052;-61
2023/06/02 05:11:32;;;;;;;0.75;0.75;;;11.40;99.90;;;;;;4938274;29;20452;-61
2023/06/02 05:13:58;;;;;;;0.25;0.25;;;11.90;99.90;;;;;;4938608;29;20130;-61
2023/06/02 05:16:24;;;;;;;2.70;2.28;;;11.70;99.90;;;;;;4938596;29;20127;-62
2023/06/02 05:18:50;;;;;;;0.98;0.82;;;11.50;99.90;;;;;;4938741;29;20465;-60
2023/06/02 05:21:16;;;;;;;0.70;0.65;;;11.50;99.90;;;;;;4938298;29;20150;-62
2023/06/02 05:23:41;;;;;;;1.88;0.60;;;11.40;99.90;;;;;;4938217;29;20134;-60
2023/06/02 05:26:07;;;;;;;0.70;0.60;;;11.80;99.90;;;;;;4938035;29;20517;-61
2023/06/02 05:28:33;;;;;;;0.52;0.40;;;12.10;99.90;;;;;;4938266;29;20077;-61
2023/06/02 05:30:59;;;;;;;0.20;0.20;;;11.90;99.90;;;;;;4938205;29;20052;-61
2023/06/02 05:33:24;;;;;;;0.40;0.40;;;11.90;99.90;;;;;;4938053;29;20396;-61
2023/06/02 05:35:50;;;;;;;0.30;0.30;;;12.40;99.90;;;;;;4938004;29;20044;-61
2023/06/02 05:38:17;;;;;;;1.17;0.90;;;11.80;99.90;;;;;;4937964;29;20052;-61
2023/06/02 05:40:44;;;;;;;0.47;0.47;;;12.00;99.90;;;;;;4937763;29;20055;-63
2023/06/02 05:43:09;;;;;;;0.20;0.20;;;12.10;99.90;;;;;;4937927;29;20500;-61
2023/06/02 05:45:35;;;;;;;0.30;0.30;;;11.60;99.90;;;;;;4937852;29;20048;-61
2023/06/02 05:48:01;;;;;;;1.25;0.68;;;11.90;99.90;;;;;;4937877;29;20062;-61
2023/06/02 05:50:26;;;;;;;0.55;0.55;;;12.10;99.90;;;;;;4937639;29;20139;-61
2023/06/02 05:52:52;;;;;;;0.43;0.30;;;11.90;99.90;;;;;;4937490;29;20461;-60
2023/06/02 05:55:18;;;;;;;2.22;0.63;;;12.80;99.90;;;;;;4937561;29;20062;-61
2023/06/02 05:57:43;;;;;;;0.20;0.20;;;12.80;99.90;;;;;;4937398;29;20451;-61
2023/06/02 06:00:10;;;;;;;0.68;0.68;;;12.70;99.90;;;;;;4936931;29;20077;-61
2023/06/02 06:02:35;;;;;;;;;;;12.30;99.90;;;;;;4929191;29;20448;-61
2023/06/02 06:05:01;;;;;;;0.80;0.80;;;12.50;99.90;;;;;;4936909;29;19970;-60
2023/06/02 06:07:26;;;;;;;0.55;0.55;;;12.70;99.90;;;;;;4936621;29;20094;-60
2023/06/02 06:09:52;;;;;;;0.40;0.40;;;12.70;99.90;;;;;;4936055;29;20050;-61
2023/06/02 06:12:18;;;;;;;1.15;0.43;;;13.00;99.90;;;;;;4936460;29;20059;-60
2023/06/02 06:14:44;;;;;;;0.25;0.25;;;12.40;99.90;;;;;;4936725;29;20135;-61
2023/06/02 06:17:09;;;;;;;0.20;0.20;;;12.40;99.90;;;;;;4935872;29;20044;-60
2023/06/02 06:19:35;;;;;;;0.93;0.50;;;12.90;99.90;;;;;;4936723;29;20408;-61
2023/06/02 06:22:02;;;;;;;1.67;1.17;;;13.00;99.90;;;;;;4936384;29;20059;-61
2023/06/02 06:24:27;;;;;;;0.20;0.20;;;12.80;99.90;;;;;;4935773;29;20102;-61
2023/06/02 06:26:53;;;;;;;1.35;0.55;;;13.40;99.90;;;;;;4936367;29;20055;-61
2023/06/02 06:29:19;;;;;;;0.20;0.20;;;13.60;99.90;;;;;;4936346;29;20044;-61
2023/06/02 06:31:44;;;;;;;0.55;0.55;;;13.00;99.90;;;;;;4935544;29;20048;-62
2023/06/02 06:34:10;;;;;;;1.20;1.20;;;13.30;99.90;;;;;;4936456;29;20051;-61
2023/06/02 06:36:36;;;;;;;0.28;0.28;;;13.70;99.90;;;;;;4936311;29;20055;-61
2023/06/02 06:39:03;;;;;;;7.95;0.57;;;13.40;99.90;;;;;;4935527;29;20054;-61
2023/06/02 06:41:28;;;;;;;0.38;0.38;;;13.60;99.90;;;;;;4936234;29;20138;-62
2023/06/02 06:43:54;;;;;;;2.10;0.85;;;14.00;99.90;;;;;;4936081;29;20183;-62
2023/06/02 06:46:20;;;;;;;1.38;0.75;;;13.90;99.90;;;;;;4935701;29;20062;-62
2023/06/02 06:48:46;;;;;;;2.33;2.20;;;14.30;99.90;;;;;;4935547;29;20079;-62
2023/06/02 06:51:12;;;;;;;0.22;0.22;;;14.00;99.90;;;;;;4936090;29;20044;-61
2023/06/02 06:53:37;;;;;;;0.40;0.40;;;14.40;99.90;;;;;;4935555;29;20513;-62
2023/06/02 06:56:03;;;;;;;;;;;14.50;99.90;;;;;;4935719;29;20784;-61
2023/06/02 06:58:29;;;;;;;0.40;0.40;;;14.30;99.90;;;;;;4935844;29;20010;-61
2023/06/02 07:00:55;;;;;;;;;;;14.30;99.90;;;;;;4936432;29;20094;-62
2023/06/02 07:03:20;;;;;;;0.40;0.40;;;14.40;99.90;;;;;;4935093;29;20025;-61
2023/06/02 07:05:46;;;;;;;;;;;14.10;99.90;;;;;;4936117;29;20046;-61
2023/06/02 07:08:13;;;;;;;3.72;0.75;;;14.60;99.90;;;;;;4935558;29;19923;-61
2023/06/02 07:10:39;;;;;;;4.97;1.33;;;14.30;99.90;;;;;;4935624;29;20044;-61
2023/06/02 07:13:06;;;;;;;0.47;0.47;;;14.70;99.90;;;;;;4935852;29;20055;-61
2023/06/02 07:15:31;;;;;;;0.20;0.20;;;14.60;99.90;;;;;;4935632;29;20102;-61
2023/06/02 07:17:57;;;;;;;1.67;0.77;;;14.50;99.90;;;;;;4934455;29;20118;-62
2023/06/02 07:20:23;;;;;;;;;;;14.60;99.90;;;;;;4934913;29;20057;-61
2023/06/02 07:22:48;;;;;;;12.48;1.38;;;14.70;99.90;;;;;;4935208;29;19933;-61
2023/06/02 07:25:14;;;;;;;;;;;14.70;99.90;;;;;;4935555;29;20062;-61
2023/06/02 07:27:40;;;;;;;2.45;0.38;;;14.70;99.90;;;;;;4934090;29;20307;-61
2023/06/02 07:30:07;;;;;;;14.77;1.23;;;14.70;99.90;;;;;;4935348;29;20054;-61
2023/06/02 07:32:32;;;;;;;7.80;1.10;;;14.90;99.90;;;;;;4933812;29;20195;-62
2023/06/02 07:34:58;;;;;;;0.30;0.30;;;14.90;99.90;;;;;;4935321;29;20476;-61
2023/06/02 07:37:23;;;;;;;;;;;14.70;99.90;;;;;;4935366;29;20134;-61
2023/06/02 07:39:49;;;;;;;0.80;0.30;;;15.10;99.90;;;;;;4934626;29;19926;-60
2023/06/02 07:42:15;;;;;;;;;;;15.30;99.90;;;;;;4927497;29;20734;-60
2023/06/02 07:44:41;;;;;;;0.30;0.30;;;15.50;99.90;;;;;;4932608;29;20391;-60
2023/06/02 07:47:10;;;;;;;0.52;0.52;;;15.70;99.90;;;;;;4933383;29;20082;-60
2023/06/02 07:49:36;;;;;;;0.13;0.13;;;15.80;99.90;;;;;;4934458;29;20508;-60
2023/06/02 07:52:02;;;;;;;;;;;15.60;99.90;;;;;;4935430;29;20055;-61
2023/06/02 07:54:28;;;;;;;0.50;0.50;;;15.80;99.90;;;;;;4935225;29;19923;-60
2023/06/02 07:56:53;;;;;;;;;;;15.60;99.90;;;;;;4934032;29;20063;-60
2023/06/02 07:59:19;;;;;;;0.10;0.10;;;15.70;99.90;;;;;;4934684;29;19934;-61
2023/06/02 08:01:46;;;;;;;0.15;0.15;;;15.30;99.90;;;;;;4928614;29;20059;-62
2023/06/02 08:04:12;;;;;;;1.13;1.00;;;15.80;99.90;;;;;;4934200;29;20047;-61
2023/06/02 08:06:39;;;;;;;;;;;15.50;99.90;;;;;;4934924;29;20044;-60
2023/06/02 08:09:05;;;;;;;1.25;0.60;;;15.30;99.90;;;;;;4930142;29;19926;-62
2023/06/02 08:11:32;;;;;;;1.65;0.65;;;15.80;99.90;;;;;;4933828;29;20051;-61
2023/06/02 08:13:57;;;;;;;;;;;15.60;99.90;;;;;;4935293;29;20059;-61
2023/06/02 08:16:24;;;;;;;0.13;0.13;;;16.10;99.90;;;;;;4934909;29;19926;-61
2023/06/02 08:18:50;;;;;;;0.88;0.43;;;15.60;99.90;;;;;;4921620;29;20052;-63
2023/06/02 08:21:17;;;;;;;0.20;0.20;;;15.50;99.90;;;;;;4934085;29;20538;-61
2023/06/02 08:23:43;;;;;;;0.20;0.20;;;16.00;99.90;;;;;;4926600;29;20066;-61
2023/06/02 08:26:09;;;;;;;0.20;0.20;;;15.70;99.90;;;;;;4932888;29;20056;-61
2023/06/02 08:28:37;;;;;;;;;;;16.20;99.90;;;;;;4933846;29;20103;-61
2023/06/02 08:31:04;;;;;;;0.22;0.22;;;16.10;99.90;;;;;;4934070;29;20076;-60
2023/06/02 08:33:33;;;;;;;0.20;0.20;;;16.80;99.90;;;;;;4922771;29;20630;-61
2023/06/02 08:36:00;;;;;;;0.30;0.30;;;16.40;99.90;;;;;;4934149;29;20139;-61
2023/06/02 08:38:29;;;;;;;0.20;0.20;;;16.70;99.90;;;;;;4933762;29;20052;-61
2023/06/02 08:40:55;;;;;;;0.10;0.10;;;16.60;99.90;;;;;;4933722;29;20059;-61
2023/06/02 08:43:22;;;;;;;15.65;0.50;;;16.80;99.90;;;;;;4932811;29;20471;-61
2023/06/02 08:45:48;;;;;;;0.32;0.32;;;16.80;99.90;;;;;;4933863;29;20110;-61
2023/06/02 08:48:17;;;;;;;0.20;0.20;;;16.60;99.90;;;;;;4932874;29;20106;-61
2023/06/02 08:50:48;;;;;;;0.30;0.30;;;17.00;99.90;;;;;;4933924;29;20136;-61
2023/06/02 08:53:16;;;;;;;5.22;1.63;;;16.90;99.90;;;;;;4929235;29;20051;-61
2023/06/02 08:55:43;;;;;;;0.20;0.20;;;17.00;99.90;;;;;;4903454;29;20560;-60
2023/06/02 08:58:11;;;;;;;0.10;0.10;;;16.90;99.90;;;;;;4933157;29;20078;-60
2023/06/02 09:00:38;;;;;;;0.30;0.30;;;17.10;99.90;;;;;;4932094;29;20056;-61
2023/06/02 09:03:05;;;;;;;0.10;0.10;;;16.70;99.90;;;;;;4932165;29;20118;-61
2023/06/02 09:05:34;;;;;;;0.30;0.30;;;17.20;99.90;;;;;;4933170;29;20575;-61
2023/06/02 09:08:12;;;;;;;10.82;0.43;;;17.30;99.90;;;;;;4932365;29;20052;-60
2023/06/02 09:10:42;;;;;;;0.20;0.20;;;17.30;99.90;;;;;;4933775;29;20436;-60
2023/06/02 09:13:31;;;;;;;0.20;0.20;;;17.50;99.90;;;;;;4933600;29;20087;-60
2023/06/02 09:16:02;;;;;;;0.20;0.20;;;17.60;99.90;;;;;;4932071;29;20090;-60
2023/06/02 09:18:28;;;;;;;0.10;0.10;;;17.40;99.90;;;;;;4948284;29;20058;-60
2023/06/02 09:20:58;;;;;;;0.28;0.28;;;17.00;99.90;;;;;;4934085;29;20047;-60
2023/06/02 09:23:43;;;;;;;0.30;0.30;;;17.30;99.90;;;;;;4933570;29;20538;-60
2023/06/02 09:26:26;;;;;;;0.17;0.17;;;17.80;99.90;;;;;;4926527;29;20095;-61
2023/06/02 09:29:01;;;;;;;0.20;0.20;;;17.50;99.90;;;;;;4932966;29;20127;-60
2023/06/02 09:31:28;;;;;;;0.30;0.30;;;17.30;99.90;;;;;;4932954;29;20052;-60
2023/06/02 09:33:59;;;;;;;1.75;0.75;;;17.70;99.90;;;;;;4932082;29;20135;-61
2023/06/02 09:36:29;;;;;;;0.10;0.10;;;17.60;99.90;;;;;;4931009;29;20063;-60
2023/06/02 09:38:56;;;;;;;0.10;0.10;;;17.70;99.90;;;;;;4933205;29;20397;-61
2023/06/02 09:41:22;;;;;;;0.22;0.22;;;17.80;99.90;;;;;;4933300;29;20485;-61
2023/06/02 09:43:48;;;;;;;;;;;17.60;99.90;;;;;;4933913;29;20062;-60
2023/06/02 09:46:14;;;;;;;0.43;0.40;;;17.50;99.90;;;;;;4933608;29;19923;-61
2023/06/02 09:48:55;;;;;;;0.25;0.25;;;17.70;99.90;;;;;;4933422;29;20070;-61
2023/06/02 09:51:25;;;;;;;0.10;0.10;;;18.10;99.90;;;;;;4934059;29;20796;-60
2023/06/02 09:53:51;;;;;;;0.10;0.10;;;18.10;99.90;;;;;;4933570;29;20061;-61
2023/06/02 09:56:22;;;;;;;0.75;0.75;;;17.90;99.90;;;;;;4936862;29;20094;-61
2023/06/02 09:58:48;;;;;;;0.10;0.10;;;18.00;99.90;;;;;;4937095;29;20565;-60
2023/06/02 10:01:15;;;;;;;;;;;18.10;99.90;;;;;;4936411;29;20153;-60
2023/06/02 10:03:44;;;;;;;0.55;0.55;;;18.40;99.90;;;;;;4936677;29;20341;-61
2023/06/02 10:07:13;;;;;;;0.10;0.10;;;18.10;99.90;;;;;;4937025;29;20134;-61
2023/06/02 10:09:59;;;;;;;0.10;0.10;;;18.20;99.90;;;;;;4877595;29;20746;-61
2023/06/02 10:12:51;;;;;;;0.30;0.30;;;18.20;99.90;;;;;;4877877;29;20509;-60
2023/06/02 10:15:46;;;;;;;1.15;1.08;;;18.40;99.90;;;;;;4922490;29;20067;-60
2023/06/02 10:18:36;;;;;;;0.30;0.30;;;18.10;99.90;;;;;;4936435;29;20062;-60
2023/06/02 10:21:20;;;;;;;0.50;0.50;;;18.50;99.90;;;;;;4936936;29;20048;-61
2023/06/02 10:23:59;;;;;;;0.10;0.10;;;18.80;99.90;;;;;;4936303;29;20381;-60
2023/06/02 10:26:46;;;;;;;0.38;0.38;;;18.70;99.90;;;;;;4936130;29;20051;-60
2023/06/02 10:29:14;;;;;;;0.20;0.20;;;18.30;99.90;;;;;;4936496;29;20047;-60
2023/06/02 10:31:43;;;;;;;0.13;0.13;;;18.30;99.90;;;;;;4936870;29;20563;-61
2023/06/02 10:34:35;;;;;;;0.10;0.10;;;18.70;99.90;;;;;;4919319;29;20047;-60
2023/06/02 10:37:01;;;;;;;0.20;0.20;;;18.50;99.90;;;;;;4936252;29;20055;-60
2023/06/02 10:39:41;;;;;;;0.10;0.10;;;18.80;99.90;;;;;;4936367;29;20058;-61
2023/06/02 10:42:12;;;;;;;0.10;0.10;;;18.70;99.90;;;;;;4936237;29;20098;-60
2023/06/02 10:44:38;;;;;;;0.35;0.35;;;18.80;99.90;;;;;;4936307;29;20051;-60
2023/06/02 10:47:19;;;;;;;0.10;0.10;;;18.30;99.90;;;;;;4936166;29;20396;-60
2023/06/02 10:49:59;;;;;;;0.65;0.22;;;18.50;99.90;;;;;;4919046;29;20392;-62
2023/06/02 10:52:32;;;;;;;0.10;0.10;;;18.50;99.90;;;;;;4936358;29;20143;-60
2023/06/02 10:55:06;;;;;;;0.40;0.40;;;18.60;99.90;;;;;;4935857;29;20043;-60
2023/06/02 10:57:58;;;;;;;1.95;0.68;;;18.50;99.90;;;;;;4935486;29;20090;-60
2023/06/02 11:00:36;;;;;;;0.30;0.30;;;18.60;99.90;;;;;;4933516;29;20058;-61
2023/06/02 11:03:03;;;;;;;0.30;0.30;;;18.20;99.90;;;;;;4936376;29;20134;-61
2023/06/02 11:05:30;;;;;;;0.10;0.10;;;18.00;99.90;;;;;;4935604;29;20048;-60
2023/06/02 11:08:11;;;;;;;0.80;0.63;;;17.80;99.90;;;;;;4935615;29;20052;-61
2023/06/02 11:10:50;;;;;;;0.25;0.25;;;18.20;99.90;;;;;;4935748;29;20056;-60
2023/06/02 11:13:16;;;;;;;0.60;0.28;;;18.20;99.90;;;;;;4935873;29;20048;-61
2023/06/02 11:15:54;;;;;;;0.38;0.35;;;18.60;99.90;;;;;;4935889;29;20126;-60
2023/06/02 11:18:23;;;;;;;0.63;0.63;;;18.60;99.90;;;;;;4935714;29;20107;-60
2023/06/02 11:20:53;;;;;;;0.10;0.10;;;18.20;99.90;;;;;;4936111;29;20106;-60
2023/06/02 11:23:20;;;;;;;0.65;0.43;;;18.20;99.90;;;;;;4935695;29;20071;-61
2023/06/02 11:26:04;;;;;;;0.10;0.10;;;18.00;99.90;;;;;;4935493;29;20074;-60
2023/06/02 11:28:30;;;;;;;0.20;0.20;;;18.00;99.90;;;;;;4918594;29;20504;-61
2023/06/02 11:31:18;;;;;;;0.85;0.82;;;17.80;99.90;;;;;;4918331;29;20070;-62
2023/06/02 11:33:49;;;;;;;0.17;0.17;;;18.10;99.90;;;;;;4935473;29;20047;-60
2023/06/02 11:36:16;;;;;;;0.55;0.55;;;18.30;99.90;;;;;;4935577;29;20192;-61
2023/06/02 11:38:42;;;;;;;0.10;0.10;;;18.10;99.90;;;;;;4935311;29;20062;-60
2023/06/02 11:41:12;;;;;;;4.38;0.35;;;17.90;99.90;;;;;;4935076;29;20405;-60
2023/06/02 11:43:45;;;;;;;0.50;0.50;;;17.90;99.90;;;;;;4935027;29;20412;-60
2023/06/02 11:46:16;;;;;;;0.47;0.47;;;17.80;99.90;;;;;;4935628;29;20059;-60
2023/06/02 11:48:43;;;;;;;0.30;0.30;;;17.70;99.90;;;;;;4918213;29;20059;-60
2023/06/02 11:51:11;;;;;;;0.10;0.10;;;17.40;99.90;;;;;;4935263;29;20054;-62
2023/06/02 11:53:44;;;;;;;0.25;0.25;;;18.00;99.90;;;;;;4935119;29;20056;-60
2023/06/02 11:56:13;;;;;;;0.40;0.40;;;18.00;99.90;;;;;;4934645;29;20066;-61
2023/06/02 11:58:41;;;;;;;0.22;0.22;;;17.80;99.90;;;;;;4935148;29;20054;-61
2023/06/02 12:01:09;;;;;;;0.10;0.10;;;17.90;99.90;;;;;;4935076;29;20526;-60
2023/06/02 12:03:36;;;;;;;0.10;0.10;;;18.20;99.90;;;;;;4935015;29;20416;-60
2023/06/02 12:06:15;;;;;;;0.13;0.13;;;18.10;99.90;;;;;;4935081;29;20500;-60
2023/06/02 12:08:42;;;;;;;0.10;0.10;;;18.50;99.90;;;;;;4934608;29;20061;-61
2023/06/02 12:11:19;;;;;;;1.10;0.45;;;18.70;99.90;;;;;;4934732;29;20054;-60
2023/06/02 12:13:59;;;;;;;0.43;0.22;;;18.70;99.90;;;;;;4934863;29;20416;-60
2023/06/02 12:16:25;;;;;;;0.50;0.50;;;18.60;99.90;;;;;;4934803;29;20128;-61
2023/06/02 12:18:53;;;;;;;0.22;0.22;;;18.40;99.90;;;;;;4934555;29;20058;-60
2023/06/02 12:21:25;;;;;;;1.17;0.40;;;18.20;99.90;;;;;;4934534;29;20067;-60
2023/06/02 12:23:51;;;;;;;0.30;0.28;;;18.60;99.90;;;;;;4917584;29;20047;-60
2023/06/02 12:26:17;;;;;;;0.98;0.60;;;18.80;99.90;;;;;;4917471;29;20535;-60
2023/06/02 12:28:43;;;;;;;2.85;0.55;;;18.60;99.90;;;;;;4934605;29;20092;-60
2023/06/02 12:31:09;;;;;;;0.10;0.10;;;18.50;99.90;;;;;;4934444;29;20114;-60
2023/06/02 12:33:35;;;;;;;0.20;0.20;;;18.60;99.90;;;;;;4934379;29;20083;-60
2023/06/02 12:36:01;;;;;;;0.75;0.50;;;19.10;99.90;;;;;;4931214;29;20052;-60
2023/06/02 12:38:29;;;;;;;1.23;0.73;;;18.40;99.90;;;;;;4932190;29;20544;-60
2023/06/02 12:40:55;;;;;;;0.75;0.57;;;18.30;99.90;;;;;;4932009;29;20164;-60
2023/06/02 12:43:20;;;;;;;0.22;0.22;;;18.70;99.90;;;;;;4933464;29;20181;-60
2023/06/02 12:45:47;;;;;;;0.15;0.15;;;18.90;99.90;;;;;;4934284;29;20062;-60
2023/06/02 12:48:13;;;;;;;0.85;0.20;;;18.90;99.90;;;;;;4934330;29;20175;-60
2023/06/02 12:50:39;;;;;;;0.65;0.50;;;18.80;99.90;;;;;;4934197;29;20130;-60
2023/06/02 12:53:05;;;;;;;0.25;0.17;;;19.50;99.90;;;;;;4934670;29;20052;-60
2023/06/02 12:55:31;;;;;;;0.15;0.15;;;19.10;99.90;;;;;;4934233;29;20054;-60
2023/06/02 12:57:56;;;;;;;0.20;0.20;;;19.00;99.90;;;;;;4934316;29;20067;-60